sensor_id;sensor_type;location;lat;lon;timestamp;P1;durP1;ratioP1;P2;durP2;ratioP2
65936;SDS011;52707;52.086;5.418;2022-11-15T00:01:07;54.15;;;22.33;;
65936;SDS011;52707;52.086;5.418;2022-11-15T00:03:34;47.80;;;22.63;;
65936;SDS011;52707;52.086;5.418;2022-11-15T00:06:01;54.35;;;23.27;;
65936;SDS011;52707;52.086;5.418;2022-11-15T00:08:31;59.75;;;24.13;;
65936;SDS011;52707;52.086;5.418;2022-11-15T00:10:58;59.53;;;22.33;;
65936;SDS011;52707;52.086;5.418;2022-11-15T00:13:24;56.00;;;23.65;;
65936;SDS011;52707;52.086;5.418;2022-11-15T00:15:51;61.85;;;24.40;;
65936;SDS011;52707;52.086;5.418;2022-11-15T00:18:18;55.10;;;23.58;;
65936;SDS011;52707;52.086;5.418;2022-11-15T00:20:44;57.42;;;24.83;;
65936;SDS011;52707;52.086;5.418;2022-11-15T00:23:10;58.80;;;25.00;;
65936;SDS011;52707;52.086;5.418;2022-11-15T00:25:37;65.07;;;25.23;;
65936;SDS011;52707;52.086;5.418;2022-11-15T00:28:03;63.65;;;24.65;;
65936;SDS011;52707;52.086;5.418;2022-11-15T00:30:29;70.32;;;27.77;;
65936;SDS011;52707;52.086;5.418;2022-11-15T00:32:56;65.50;;;27.60;;
65936;SDS011;52707;52.086;5.418;2022-11-15T00:35:22;67.70;;;25.83;;
65936;SDS011;52707;52.086;5.418;2022-11-15T00:37:48;70.88;;;26.33;;
65936;SDS011;52707;52.086;5.418;2022-11-15T00:40:15;66.18;;;27.27;;
65936;SDS011;52707;52.086;5.418;2022-11-15T00:42:41;72.80;;;28.30;;
65936;SDS011;52707;52.086;5.418;2022-11-15T00:45:08;65.43;;;26.38;;
65936;SDS011;52707;52.086;5.418;2022-11-15T00:47:34;67.20;;;26.75;;
65936;SDS011;52707;52.086;5.418;2022-11-15T00:50:00;78.78;;;27.88;;
65936;SDS011;52707;52.086;5.418;2022-11-15T00:52:27;74.25;;;27.85;;
65936;SDS011;52707;52.086;5.418;2022-11-15T00:54:53;64.75;;;26.98;;
65936;SDS011;52707;52.086;5.418;2022-11-15T00:57:19;71.80;;;28.27;;
65936;SDS011;52707;52.086;5.418;2022-11-15T00:59:45;66.50;;;26.60;;
65936;SDS011;52707;52.086;5.418;2022-11-15T01:02:12;64.03;;;26.80;;
65936;SDS011;52707;52.086;5.418;2022-11-15T01:04:38;64.93;;;25.70;;
65936;SDS011;52707;52.086;5.418;2022-11-15T01:07:05;73.53;;;28.27;;
65936;SDS011;52707;52.086;5.418;2022-11-15T01:09:31;78.68;;;27.10;;
65936;SDS011;52707;52.086;5.418;2022-11-15T01:11:57;66.80;;;27.80;;
65936;SDS011;52707;52.086;5.418;2022-11-15T01:14:24;67.75;;;28.80;;
65936;SDS011;52707;52.086;5.418;2022-11-15T01:16:50;64.93;;;26.85;;
65936;SDS011;52707;52.086;5.418;2022-11-15T01:19:17;78.68;;;29.30;;
65936;SDS011;52707;52.086;5.418;2022-11-15T01:21:43;75.53;;;28.13;;
65936;SDS011;52707;52.086;5.418;2022-11-15T01:24:12;69.15;;;28.40;;
65936;SDS011;52707;52.086;5.418;2022-11-15T01:26:39;66.38;;;25.77;;
65936;SDS011;52707;52.086;5.418;2022-11-15T01:29:05;62.28;;;27.00;;
65936;SDS011;52707;52.086;5.418;2022-11-15T01:31:31;59.95;;;27.05;;
65936;SDS011;52707;52.086;5.418;2022-11-15T01:33:57;68.10;;;26.35;;
65936;SDS011;52707;52.086;5.418;2022-11-15T01:36:24;63.88;;;26.40;;
65936;SDS011;52707;52.086;5.418;2022-11-15T01:38:53;64.75;;;26.45;;
65936;SDS011;52707;52.086;5.418;2022-11-15T01:41:22;63.78;;;27.35;;
65936;SDS011;52707;52.086;5.418;2022-11-15T01:43:51;69.75;;;26.92;;
65936;SDS011;52707;52.086;5.418;2022-11-15T01:46:30;78.82;;;27.55;;
65936;SDS011;52707;52.086;5.418;2022-11-15T01:51:25;60.13;;;25.98;;
65936;SDS011;52707;52.086;5.418;2022-11-15T01:53:53;74.45;;;27.35;;
65936;SDS011;52707;52.086;5.418;2022-11-15T01:56:23;60.75;;;26.33;;
65936;SDS011;52707;52.086;5.418;2022-11-15T01:58:50;65.25;;;26.33;;
65936;SDS011;52707;52.086;5.418;2022-11-15T02:01:17;67.60;;;27.42;;
65936;SDS011;52707;52.086;5.418;2022-11-15T02:03:50;67.32;;;26.85;;
65936;SDS011;52707;52.086;5.418;2022-11-15T02:06:18;64.70;;;27.17;;
65936;SDS011;52707;52.086;5.418;2022-11-15T02:08:44;65.20;;;26.25;;
65936;SDS011;52707;52.086;5.418;2022-11-15T02:11:10;59.28;;;25.80;;
65936;SDS011;52707;52.086;5.418;2022-11-15T02:13:37;53.63;;;27.45;;
65936;SDS011;52707;52.086;5.418;2022-11-15T02:18:37;55.70;;;26.08;;
65936;SDS011;52707;52.086;5.418;2022-11-15T02:21:06;60.42;;;25.42;;
65936;SDS011;52707;52.086;5.418;2022-11-15T02:29:01;60.70;;;27.80;;
65936;SDS011;52707;52.086;5.418;2022-11-15T02:38:54;56.78;;;26.33;;
65936;SDS011;52707;52.086;5.418;2022-11-15T02:41:24;54.40;;;26.85;;
65936;SDS011;52707;52.086;5.418;2022-11-15T02:44:12;45.50;;;24.83;;
65936;SDS011;52707;52.086;5.418;2022-11-15T02:46:48;54.42;;;24.77;;
65936;SDS011;52707;52.086;5.418;2022-11-15T02:49:34;57.45;;;25.27;;
65936;SDS011;52707;52.086;5.418;2022-11-15T02:52:01;56.13;;;25.20;;
65936;SDS011;52707;52.086;5.418;2022-11-15T02:54:31;57.80;;;25.48;;
65936;SDS011;52707;52.086;5.418;2022-11-15T02:56:59;51.90;;;26.23;;
65936;SDS011;52707;52.086;5.418;2022-11-15T03:02:13;62.05;;;25.17;;
65936;SDS011;52707;52.086;5.418;2022-11-15T03:09:51;48.20;;;23.50;;
65936;SDS011;52707;52.086;5.418;2022-11-15T03:12:25;46.38;;;24.58;;
65936;SDS011;52707;52.086;5.418;2022-11-15T03:15:00;42.67;;;22.45;;
65936;SDS011;52707;52.086;5.418;2022-11-15T03:17:28;46.00;;;23.38;;
65936;SDS011;52707;52.086;5.418;2022-11-15T03:19:56;46.25;;;23.83;;
65936;SDS011;52707;52.086;5.418;2022-11-15T03:22:24;44.72;;;23.10;;
65936;SDS011;52707;52.086;5.418;2022-11-15T03:24:53;42.33;;;23.65;;
65936;SDS011;52707;52.086;5.418;2022-11-15T03:27:21;44.35;;;22.75;;
65936;SDS011;52707;52.086;5.418;2022-11-15T03:29:50;47.67;;;23.83;;
65936;SDS011;52707;52.086;5.418;2022-11-15T03:32:24;43.90;;;24.42;;
65936;SDS011;52707;52.086;5.418;2022-11-15T03:35:01;47.17;;;24.30;;
65936;SDS011;52707;52.086;5.418;2022-11-15T03:37:36;47.33;;;24.75;;
65936;SDS011;52707;52.086;5.418;2022-11-15T03:40:03;49.65;;;24.52;;
65936;SDS011;52707;52.086;5.418;2022-11-15T03:42:30;46.80;;;25.63;;
65936;SDS011;52707;52.086;5.418;2022-11-15T03:45:14;46.20;;;24.90;;
65936;SDS011;52707;52.086;5.418;2022-11-15T03:47:52;55.72;;;25.85;;
65936;SDS011;52707;52.086;5.418;2022-11-15T03:50:20;48.83;;;25.92;;
65936;SDS011;52707;52.086;5.418;2022-11-15T03:52:47;53.20;;;24.30;;
65936;SDS011;52707;52.086;5.418;2022-11-15T03:55:15;49.83;;;25.40;;
65936;SDS011;52707;52.086;5.418;2022-11-15T03:57:42;44.97;;;25.25;;
65936;SDS011;52707;52.086;5.418;2022-11-15T04:00:08;49.25;;;27.13;;
65936;SDS011;52707;52.086;5.418;2022-11-15T04:02:34;52.72;;;25.48;;
65936;SDS011;52707;52.086;5.418;2022-11-15T04:05:01;49.58;;;24.35;;
65936;SDS011;52707;52.086;5.418;2022-11-15T04:07:27;56.22;;;26.65;;
65936;SDS011;52707;52.086;5.418;2022-11-15T04:09:54;52.45;;;27.33;;
65936;SDS011;52707;52.086;5.418;2022-11-15T04:12:30;55.00;;;25.80;;
65936;SDS011;52707;52.086;5.418;2022-11-15T04:15:00;47.40;;;25.70;;
65936;SDS011;52707;52.086;5.418;2022-11-15T04:17:39;63.13;;;29.08;;
65936;SDS011;52707;52.086;5.418;2022-11-15T04:22:57;50.22;;;24.98;;
65936;SDS011;52707;52.086;5.418;2022-11-15T04:25:43;59.05;;;26.25;;
65936;SDS011;52707;52.086;5.418;2022-11-15T04:28:10;52.33;;;27.08;;
65936;SDS011;52707;52.086;5.418;2022-11-15T04:30:36;52.22;;;27.95;;
65936;SDS011;52707;52.086;5.418;2022-11-15T04:33:03;52.60;;;26.25;;
65936;SDS011;52707;52.086;5.418;2022-11-15T04:35:29;47.00;;;25.92;;
65936;SDS011;52707;52.086;5.418;2022-11-15T04:37:56;49.80;;;25.60;;
65936;SDS011;52707;52.086;5.418;2022-11-15T04:40:23;49.53;;;27.45;;
65936;SDS011;52707;52.086;5.418;2022-11-15T04:42:49;46.80;;;25.52;;
65936;SDS011;52707;52.086;5.418;2022-11-15T04:45:15;48.35;;;26.73;;
65936;SDS011;52707;52.086;5.418;2022-11-15T04:47:45;57.53;;;27.42;;
65936;SDS011;52707;52.086;5.418;2022-11-15T04:50:12;57.17;;;27.97;;
65936;SDS011;52707;52.086;5.418;2022-11-15T04:52:42;57.95;;;27.65;;
65936;SDS011;52707;52.086;5.418;2022-11-15T04:55:10;56.60;;;27.95;;
65936;SDS011;52707;52.086;5.418;2022-11-15T04:57:36;58.22;;;28.58;;
65936;SDS011;52707;52.086;5.418;2022-11-15T05:00:04;59.42;;;29.08;;
65936;SDS011;52707;52.086;5.418;2022-11-15T05:02:30;55.08;;;28.60;;
65936;SDS011;52707;52.086;5.418;2022-11-15T05:05:17;50.20;;;27.98;;
65936;SDS011;52707;52.086;5.418;2022-11-15T05:07:43;53.53;;;28.27;;
65936;SDS011;52707;52.086;5.418;2022-11-15T05:10:09;50.58;;;27.02;;
65936;SDS011;52707;52.086;5.418;2022-11-15T05:12:35;48.80;;;25.50;;
65936;SDS011;52707;52.086;5.418;2022-11-15T05:15:02;47.08;;;26.05;;
65936;SDS011;52707;52.086;5.418;2022-11-15T05:17:28;45.30;;;25.42;;
65936;SDS011;52707;52.086;5.418;2022-11-15T05:19:55;51.22;;;26.17;;
65936;SDS011;52707;52.086;5.418;2022-11-15T05:22:21;52.65;;;26.20;;
65936;SDS011;52707;52.086;5.418;2022-11-15T05:24:47;48.28;;;27.05;;
65936;SDS011;52707;52.086;5.418;2022-11-15T05:27:14;50.25;;;25.92;;
65936;SDS011;52707;52.086;5.418;2022-11-15T05:29:40;47.05;;;26.67;;
65936;SDS011;52707;52.086;5.418;2022-11-15T05:32:06;45.95;;;25.55;;
65936;SDS011;52707;52.086;5.418;2022-11-15T05:34:34;43.90;;;25.23;;
65936;SDS011;52707;52.086;5.418;2022-11-15T05:37:01;59.20;;;28.52;;
65936;SDS011;52707;52.086;5.418;2022-11-15T05:39:27;46.30;;;25.10;;
65936;SDS011;52707;52.086;5.418;2022-11-15T05:42:01;45.17;;;24.98;;
65936;SDS011;52707;52.086;5.418;2022-11-15T05:44:30;42.50;;;24.25;;
65936;SDS011;52707;52.086;5.418;2022-11-15T05:46:56;50.40;;;25.20;;
65936;SDS011;52707;52.086;5.418;2022-11-15T05:49:24;55.95;;;25.92;;
65936;SDS011;52707;52.086;5.418;2022-11-15T05:51:51;48.50;;;24.80;;
65936;SDS011;52707;52.086;5.418;2022-11-15T05:54:17;57.65;;;25.60;;
65936;SDS011;52707;52.086;5.418;2022-11-15T05:56:45;45.92;;;25.27;;
65936;SDS011;52707;52.086;5.418;2022-11-15T05:59:12;41.88;;;24.02;;
65936;SDS011;52707;52.086;5.418;2022-11-15T06:01:38;53.10;;;26.02;;
65936;SDS011;52707;52.086;5.418;2022-11-15T06:04:05;49.72;;;24.67;;
65936;SDS011;52707;52.086;5.418;2022-11-15T06:06:32;52.80;;;26.85;;
65936;SDS011;52707;52.086;5.418;2022-11-15T06:08:58;48.72;;;26.70;;
65936;SDS011;52707;52.086;5.418;2022-11-15T06:11:24;52.05;;;28.08;;
65936;SDS011;52707;52.086;5.418;2022-11-15T06:13:51;56.67;;;28.13;;
65936;SDS011;52707;52.086;5.418;2022-11-15T06:16:17;54.10;;;27.83;;
65936;SDS011;52707;52.086;5.418;2022-11-15T06:18:43;50.42;;;26.00;;
65936;SDS011;52707;52.086;5.418;2022-11-15T06:21:09;52.42;;;27.52;;
65936;SDS011;52707;52.086;5.418;2022-11-15T06:23:36;49.38;;;25.20;;
65936;SDS011;52707;52.086;5.418;2022-11-15T06:26:02;46.20;;;26.00;;
65936;SDS011;52707;52.086;5.418;2022-11-15T06:28:29;45.88;;;25.50;;
65936;SDS011;52707;52.086;5.418;2022-11-15T06:30:56;51.08;;;26.17;;
65936;SDS011;52707;52.086;5.418;2022-11-15T06:33:23;51.78;;;26.33;;
65936;SDS011;52707;52.086;5.418;2022-11-15T06:35:49;53.10;;;26.83;;
65936;SDS011;52707;52.086;5.418;2022-11-15T06:38:15;60.15;;;26.13;;
65936;SDS011;52707;52.086;5.418;2022-11-15T06:40:41;52.78;;;28.63;;
65936;SDS011;52707;52.086;5.418;2022-11-15T06:43:08;46.03;;;25.20;;
65936;SDS011;52707;52.086;5.418;2022-11-15T06:45:34;58.08;;;29.27;;
65936;SDS011;52707;52.086;5.418;2022-11-15T06:48:00;54.33;;;28.05;;
65936;SDS011;52707;52.086;5.418;2022-11-15T06:50:26;52.22;;;27.50;;
65936;SDS011;52707;52.086;5.418;2022-11-15T06:52:53;49.28;;;26.20;;
65936;SDS011;52707;52.086;5.418;2022-11-15T06:55:20;51.85;;;26.02;;
65936;SDS011;52707;52.086;5.418;2022-11-15T06:57:47;62.65;;;28.08;;
65936;SDS011;52707;52.086;5.418;2022-11-15T07:00:14;46.35;;;26.05;;
65936;SDS011;52707;52.086;5.418;2022-11-15T07:02:40;51.47;;;26.52;;
65936;SDS011;52707;52.086;5.418;2022-11-15T07:05:06;51.42;;;28.17;;
65936;SDS011;52707;52.086;5.418;2022-11-15T07:07:33;59.58;;;25.52;;
65936;SDS011;52707;52.086;5.418;2022-11-15T07:09:59;54.20;;;28.33;;
65936;SDS011;52707;52.086;5.418;2022-11-15T07:12:25;54.85;;;27.88;;
65936;SDS011;52707;52.086;5.418;2022-11-15T07:14:51;51.35;;;26.70;;
65936;SDS011;52707;52.086;5.418;2022-11-15T07:17:18;64.25;;;26.75;;
65936;SDS011;52707;52.086;5.418;2022-11-15T07:19:44;51.47;;;25.67;;
65936;SDS011;52707;52.086;5.418;2022-11-15T07:22:10;50.97;;;24.25;;
65936;SDS011;52707;52.086;5.418;2022-11-15T07:24:36;45.10;;;23.90;;
65936;SDS011;52707;52.086;5.418;2022-11-15T07:27:03;50.95;;;23.48;;
65936;SDS011;52707;52.086;5.418;2022-11-15T07:29:29;46.88;;;24.08;;
65936;SDS011;52707;52.086;5.418;2022-11-15T07:31:55;40.92;;;23.70;;
65936;SDS011;52707;52.086;5.418;2022-11-15T07:34:22;48.35;;;23.48;;
65936;SDS011;52707;52.086;5.418;2022-11-15T07:36:48;42.67;;;22.08;;
65936;SDS011;52707;52.086;5.418;2022-11-15T07:39:14;44.38;;;23.15;;
65936;SDS011;52707;52.086;5.418;2022-11-15T07:41:40;40.35;;;21.85;;
65936;SDS011;52707;52.086;5.418;2022-11-15T07:44:07;46.83;;;20.60;;
65936;SDS011;52707;52.086;5.418;2022-11-15T07:46:33;42.33;;;21.58;;
65936;SDS011;52707;52.086;5.418;2022-11-15T07:48:59;44.90;;;21.58;;
65936;SDS011;52707;52.086;5.418;2022-11-15T07:51:25;42.17;;;20.75;;
65936;SDS011;52707;52.086;5.418;2022-11-15T07:53:52;38.55;;;20.00;;
65936;SDS011;52707;52.086;5.418;2022-11-15T07:56:18;39.88;;;21.40;;
65936;SDS011;52707;52.086;5.418;2022-11-15T07:58:46;48.75;;;20.73;;
65936;SDS011;52707;52.086;5.418;2022-11-15T08:01:13;38.63;;;20.38;;
65936;SDS011;52707;52.086;5.418;2022-11-15T08:03:39;37.65;;;19.05;;
65936;SDS011;52707;52.086;5.418;2022-11-15T08:06:05;37.92;;;20.48;;
65936;SDS011;52707;52.086;5.418;2022-11-15T08:08:32;41.30;;;20.08;;
65936;SDS011;52707;52.086;5.418;2022-11-15T08:10:58;40.63;;;20.35;;
65936;SDS011;52707;52.086;5.418;2022-11-15T08:13:24;35.05;;;18.63;;
65936;SDS011;52707;52.086;5.418;2022-11-15T08:15:51;34.85;;;19.95;;
65936;SDS011;52707;52.086;5.418;2022-11-15T08:18:22;35.17;;;17.75;;
65936;SDS011;52707;52.086;5.418;2022-11-15T08:20:49;32.60;;;18.17;;
65936;SDS011;52707;52.086;5.418;2022-11-15T08:23:15;30.60;;;17.98;;
65936;SDS011;52707;52.086;5.418;2022-11-15T08:25:41;31.50;;;17.20;;
65936;SDS011;52707;52.086;5.418;2022-11-15T08:28:08;34.22;;;17.77;;
65936;SDS011;52707;52.086;5.418;2022-11-15T08:30:36;25.60;;;15.68;;
65936;SDS011;52707;52.086;5.418;2022-11-15T08:33:03;33.70;;;18.25;;
65936;SDS011;52707;52.086;5.418;2022-11-15T08:35:30;29.25;;;17.25;;
65936;SDS011;52707;52.086;5.418;2022-11-15T08:37:56;28.42;;;16.60;;
65936;SDS011;52707;52.086;5.418;2022-11-15T08:40:22;33.35;;;17.23;;
65936;SDS011;52707;52.086;5.418;2022-11-15T08:42:49;31.95;;;17.13;;
65936;SDS011;52707;52.086;5.418;2022-11-15T08:45:15;32.45;;;17.27;;
65936;SDS011;52707;52.086;5.418;2022-11-15T08:47:41;28.90;;;17.40;;
65936;SDS011;52707;52.086;5.418;2022-11-15T08:50:08;28.10;;;16.83;;
65936;SDS011;52707;52.086;5.418;2022-11-15T08:52:34;28.65;;;17.77;;
65936;SDS011;52707;52.086;5.418;2022-11-15T08:55:00;32.03;;;17.48;;
65936;SDS011;52707;52.086;5.418;2022-11-15T08:57:30;26.20;;;17.15;;
65936;SDS011;52707;52.086;5.418;2022-11-15T08:59:56;24.98;;;15.82;;
65936;SDS011;52707;52.086;5.418;2022-11-15T09:02:23;30.40;;;16.20;;
65936;SDS011;52707;52.086;5.418;2022-11-15T09:04:49;25.42;;;16.60;;
65936;SDS011;52707;52.086;5.418;2022-11-15T09:07:16;28.45;;;15.90;;
65936;SDS011;52707;52.086;5.418;2022-11-15T09:09:42;29.27;;;14.80;;
65936;SDS011;52707;52.086;5.418;2022-11-15T09:12:08;25.00;;;15.25;;
65936;SDS011;52707;52.086;5.418;2022-11-15T09:14:35;29.23;;;15.05;;
65936;SDS011;52707;52.086;5.418;2022-11-15T09:17:01;29.13;;;14.93;;
65936;SDS011;52707;52.086;5.418;2022-11-15T09:19:28;23.38;;;14.18;;
65936;SDS011;52707;52.086;5.418;2022-11-15T09:21:54;21.38;;;14.02;;
65936;SDS011;52707;52.086;5.418;2022-11-15T09:24:20;23.33;;;13.98;;
65936;SDS011;52707;52.086;5.418;2022-11-15T09:26:47;21.77;;;12.57;;
65936;SDS011;52707;52.086;5.418;2022-11-15T09:29:15;26.17;;;13.07;;
65936;SDS011;52707;52.086;5.418;2022-11-15T09:31:41;27.85;;;11.27;;
65936;SDS011;52707;52.086;5.418;2022-11-15T09:34:08;19.38;;;12.00;;
65936;SDS011;52707;52.086;5.418;2022-11-15T09:36:34;23.55;;;11.02;;
65936;SDS011;52707;52.086;5.418;2022-11-15T09:39:01;17.65;;;10.90;;
65936;SDS011;52707;52.086;5.418;2022-11-15T09:49:23;15.55;;;9.20;;
65936;SDS011;52707;52.086;5.418;2022-11-15T09:51:50;20.92;;;8.77;;
65936;SDS011;52707;52.086;5.418;2022-11-15T09:57:12;14.32;;;7.50;;
65936;SDS011;52707;52.086;5.418;2022-11-15T10:05:14;15.25;;;7.63;;
65936;SDS011;52707;52.086;5.418;2022-11-15T10:10:23;10.23;;;6.32;;
65936;SDS011;52707;52.086;5.418;2022-11-15T10:12:51;11.82;;;5.95;;
65936;SDS011;52707;52.086;5.418;2022-11-15T10:15:18;12.15;;;5.50;;
65936;SDS011;52707;52.086;5.418;2022-11-15T10:18:06;12.70;;;5.30;;
65936;SDS011;52707;52.086;5.418;2022-11-15T10:20:39;12.68;;;5.72;;
65936;SDS011;52707;52.086;5.418;2022-11-15T10:23:06;11.98;;;5.90;;
65936;SDS011;52707;52.086;5.418;2022-11-15T10:25:36;14.40;;;6.40;;
65936;SDS011;52707;52.086;5.418;2022-11-15T10:30:37;13.57;;;5.85;;
65936;SDS011;52707;52.086;5.418;2022-11-15T10:35:42;11.07;;;5.05;;
65936;SDS011;52707;52.086;5.418;2022-11-15T10:38:09;6.13;;;3.58;;
65936;SDS011;52707;52.086;5.418;2022-11-15T10:40:36;7.93;;;3.10;;
65936;SDS011;52707;52.086;5.418;2022-11-15T10:45:35;8.50;;;3.50;;
65936;SDS011;52707;52.086;5.418;2022-11-15T10:48:20;7.18;;;3.85;;
65936;SDS011;52707;52.086;5.418;2022-11-15T10:50:48;4.63;;;3.15;;
65936;SDS011;52707;52.086;5.418;2022-11-15T10:55:51;5.13;;;2.72;;
65936;SDS011;52707;52.086;5.418;2022-11-15T10:58:37;8.10;;;3.25;;
65936;SDS011;52707;52.086;5.418;2022-11-15T11:03:37;4.88;;;2.45;;
65936;SDS011;52707;52.086;5.418;2022-11-15T11:08:30;9.68;;;2.65;;
65936;SDS011;52707;52.086;5.418;2022-11-15T11:10:58;8.15;;;2.38;;
65936;SDS011;52707;52.086;5.418;2022-11-15T11:21:09;7.78;;;2.30;;
65936;SDS011;52707;52.086;5.418;2022-11-15T11:29:14;5.78;;;2.15;;
65936;SDS011;52707;52.086;5.418;2022-11-15T11:34:25;3.63;;;2.15;;
65936;SDS011;52707;52.086;5.418;2022-11-15T11:39:39;7.47;;;1.83;;
65936;SDS011;52707;52.086;5.418;2022-11-15T11:42:13;10.77;;;2.15;;
65936;SDS011;52707;52.086;5.418;2022-11-15T11:45:01;38.28;;;5.10;;
65936;SDS011;52707;52.086;5.418;2022-11-15T11:47:32;16.10;;;3.20;;
65936;SDS011;52707;52.086;5.418;2022-11-15T11:52:42;2.63;;;1.52;;
65936;SDS011;52707;52.086;5.418;2022-11-15T11:55:14;4.90;;;1.48;;
65936;SDS011;52707;52.086;5.418;2022-11-15T12:02:38;7.20;;;1.88;;
65936;SDS011;52707;52.086;5.418;2022-11-15T12:05:49;10.90;;;1.98;;
65936;SDS011;52707;52.086;5.418;2022-11-15T12:08:00;6.45;;;1.90;;
65936;SDS011;52707;52.086;5.418;2022-11-15T12:10:30;4.35;;;1.58;;
65936;SDS011;52707;52.086;5.418;2022-11-15T12:13:08;5.13;;;1.52;;
65936;SDS011;52707;52.086;5.418;2022-11-15T12:15:40;5.47;;;1.60;;
65936;SDS011;52707;52.086;5.418;2022-11-15T12:18:11;5.20;;;1.60;;
65936;SDS011;52707;52.086;5.418;2022-11-15T12:20:39;6.57;;;1.75;;
65936;SDS011;52707;52.086;5.418;2022-11-15T12:23:15;4.07;;;1.40;;
65936;SDS011;52707;52.086;5.418;2022-11-15T12:33:55;9.63;;;1.50;;
65936;SDS011;52707;52.086;5.418;2022-11-15T12:41:27;3.72;;;1.52;;
65936;SDS011;52707;52.086;5.418;2022-11-15T12:46:21;7.78;;;1.70;;
65936;SDS011;52707;52.086;5.418;2022-11-15T12:48:49;10.65;;;1.83;;
65936;SDS011;52707;52.086;5.418;2022-11-15T12:51:16;7.88;;;1.80;;
65936;SDS011;52707;52.086;5.418;2022-11-15T12:53:43;6.85;;;1.45;;
65936;SDS011;52707;52.086;5.418;2022-11-15T12:56:17;9.50;;;1.83;;
65936;SDS011;52707;52.086;5.418;2022-11-15T12:59:00;7.53;;;1.60;;
65936;SDS011;52707;52.086;5.418;2022-11-15T13:11:52;8.95;;;1.75;;
65936;SDS011;52707;52.086;5.418;2022-11-15T13:17:03;4.80;;;1.65;;
65936;SDS011;52707;52.086;5.418;2022-11-15T13:19:38;5.55;;;2.00;;
65936;SDS011;52707;52.086;5.418;2022-11-15T13:22:08;13.23;;;2.50;;
65936;SDS011;52707;52.086;5.418;2022-11-15T13:24:54;8.73;;;2.05;;
65936;SDS011;52707;52.086;5.418;2022-11-15T13:27:20;9.90;;;4.10;;
65936;SDS011;52707;52.086;5.418;2022-11-15T13:29:47;8.00;;;1.58;;
65936;SDS011;52707;52.086;5.418;2022-11-15T13:32:13;8.25;;;3.78;;
65936;SDS011;52707;52.086;5.418;2022-11-15T13:34:47;9.32;;;2.97;;
65936;SDS011;52707;52.086;5.418;2022-11-15T13:39:48;6.85;;;3.28;;
65936;SDS011;52707;52.086;5.418;2022-11-15T13:42:15;13.10;;;2.63;;
65936;SDS011;52707;52.086;5.418;2022-11-15T13:44:54;8.98;;;1.73;;
65936;SDS011;52707;52.086;5.418;2022-11-15T13:47:21;8.43;;;2.58;;
65936;SDS011;52707;52.086;5.418;2022-11-15T13:49:47;6.72;;;2.22;;
65936;SDS011;52707;52.086;5.418;2022-11-15T13:52:14;5.10;;;1.70;;
65936;SDS011;52707;52.086;5.418;2022-11-15T13:54:59;8.30;;;2.08;;
65936;SDS011;52707;52.086;5.418;2022-11-15T14:00:00;5.93;;;1.75;;
65936;SDS011;52707;52.086;5.418;2022-11-15T14:02:31;10.05;;;2.17;;
65936;SDS011;52707;52.086;5.418;2022-11-15T14:10:38;8.75;;;2.30;;
65936;SDS011;52707;52.086;5.418;2022-11-15T14:13:10;5.53;;;1.90;;
65936;SDS011;52707;52.086;5.418;2022-11-15T14:15:38;19.88;;;2.45;;
65936;SDS011;52707;52.086;5.418;2022-11-15T14:18:05;12.35;;;2.53;;
65936;SDS011;52707;52.086;5.418;2022-11-15T14:22:59;7.13;;;2.15;;
65936;SDS011;52707;52.086;5.418;2022-11-15T14:25:27;7.70;;;1.88;;
65936;SDS011;52707;52.086;5.418;2022-11-15T14:30:39;4.25;;;1.88;;
65936;SDS011;52707;52.086;5.418;2022-11-15T14:36:05;10.98;;;2.47;;
65936;SDS011;52707;52.086;5.418;2022-11-15T14:40:59;6.10;;;2.08;;
65936;SDS011;52707;52.086;5.418;2022-11-15T14:43:25;6.82;;;2.05;;
65936;SDS011;52707;52.086;5.418;2022-11-15T14:45:51;6.60;;;2.47;;
65936;SDS011;52707;52.086;5.418;2022-11-15T14:48:18;4.15;;;1.90;;
65936;SDS011;52707;52.086;5.418;2022-11-15T14:50:44;7.72;;;2.83;;
65936;SDS011;52707;52.086;5.418;2022-11-15T14:53:14;7.20;;;2.50;;
65936;SDS011;52707;52.086;5.418;2022-11-15T14:55:41;9.10;;;2.33;;
65936;SDS011;52707;52.086;5.418;2022-11-15T14:58:07;6.38;;;1.80;;
65936;SDS011;52707;52.086;5.418;2022-11-15T15:00:37;11.68;;;1.77;;
65936;SDS011;52707;52.086;5.418;2022-11-15T15:03:04;13.23;;;2.55;;
65936;SDS011;52707;52.086;5.418;2022-11-15T15:05:34;6.72;;;1.70;;
65936;SDS011;52707;52.086;5.418;2022-11-15T15:08:01;11.50;;;1.80;;
65936;SDS011;52707;52.086;5.418;2022-11-15T15:10:30;8.43;;;2.67;;
65936;SDS011;52707;52.086;5.418;2022-11-15T15:13:20;5.10;;;1.63;;
65936;SDS011;52707;52.086;5.418;2022-11-15T15:15:47;7.85;;;2.22;;
65936;SDS011;52707;52.086;5.418;2022-11-15T15:18:13;10.90;;;2.88;;
65936;SDS011;52707;52.086;5.418;2022-11-15T15:20:39;8.60;;;2.10;;
65936;SDS011;52707;52.086;5.418;2022-11-15T15:23:25;6.97;;;2.60;;
65936;SDS011;52707;52.086;5.418;2022-11-15T15:25:55;9.75;;;3.08;;
65936;SDS011;52707;52.086;5.418;2022-11-15T15:28:21;5.60;;;2.45;;
65936;SDS011;52707;52.086;5.418;2022-11-15T15:30:47;11.23;;;2.20;;
65936;SDS011;52707;52.086;5.418;2022-11-15T15:33:15;8.50;;;2.10;;
65936;SDS011;52707;52.086;5.418;2022-11-15T15:35:41;5.28;;;1.75;;
65936;SDS011;52707;52.086;5.418;2022-11-15T15:38:10;5.60;;;1.80;;
65936;SDS011;52707;52.086;5.418;2022-11-15T15:40:36;12.00;;;2.08;;
65936;SDS011;52707;52.086;5.418;2022-11-15T15:43:03;10.00;;;1.80;;
65936;SDS011;52707;52.086;5.418;2022-11-15T15:45:29;4.70;;;2.00;;
65936;SDS011;52707;52.086;5.418;2022-11-15T15:47:56;6.65;;;2.15;;
65936;SDS011;52707;52.086;5.418;2022-11-15T15:50:24;7.35;;;1.95;;
65936;SDS011;52707;52.086;5.418;2022-11-15T15:52:51;8.48;;;1.95;;
65936;SDS011;52707;52.086;5.418;2022-11-15T15:55:18;6.25;;;2.38;;
65936;SDS011;52707;52.086;5.418;2022-11-15T15:57:44;6.15;;;2.40;;
65936;SDS011;52707;52.086;5.418;2022-11-15T16:00:12;5.88;;;2.42;;
65936;SDS011;52707;52.086;5.418;2022-11-15T16:02:38;12.18;;;2.33;;
65936;SDS011;52707;52.086;5.418;2022-11-15T16:05:06;9.05;;;2.30;;
65936;SDS011;52707;52.086;5.418;2022-11-15T16:07:32;8.48;;;2.53;;
65936;SDS011;52707;52.086;5.418;2022-11-15T16:09:59;12.57;;;2.58;;
65936;SDS011;52707;52.086;5.418;2022-11-15T16:12:29;9.82;;;3.05;;
65936;SDS011;52707;52.086;5.418;2022-11-15T16:14:56;6.25;;;2.17;;
65936;SDS011;52707;52.086;5.418;2022-11-15T16:17:26;9.75;;;3.70;;
65936;SDS011;52707;52.086;5.418;2022-11-15T16:19:59;29.48;;;13.13;;
65936;SDS011;52707;52.086;5.418;2022-11-15T16:22:25;21.98;;;6.75;;
65936;SDS011;52707;52.086;5.418;2022-11-15T16:24:51;11.30;;;3.75;;
65936;SDS011;52707;52.086;5.418;2022-11-15T16:27:18;16.50;;;4.38;;
65936;SDS011;52707;52.086;5.418;2022-11-15T16:29:45;7.20;;;2.95;;
65936;SDS011;52707;52.086;5.418;2022-11-15T16:32:12;6.32;;;2.50;;
65936;SDS011;52707;52.086;5.418;2022-11-15T16:34:38;11.23;;;3.17;;
65936;SDS011;52707;52.086;5.418;2022-11-15T16:37:15;10.15;;;2.90;;
65936;SDS011;52707;52.086;5.418;2022-11-15T16:39:46;12.35;;;3.35;;
65936;SDS011;52707;52.086;5.418;2022-11-15T16:42:12;12.25;;;2.80;;
65936;SDS011;52707;52.086;5.418;2022-11-15T16:44:38;5.95;;;2.65;;
65936;SDS011;52707;52.086;5.418;2022-11-15T16:47:04;5.90;;;2.70;;
65936;SDS011;52707;52.086;5.418;2022-11-15T16:49:31;7.43;;;3.00;;
65936;SDS011;52707;52.086;5.418;2022-11-15T16:51:57;17.17;;;3.65;;
65936;SDS011;52707;52.086;5.418;2022-11-15T16:54:23;9.20;;;2.55;;